Time;durP1;ratioP1;P1;durP2;ratioP2;P2;SDS_P1;SDS_P2;PMS_P1;PMS_P2;Temp;Humidity;BMP_temperature;BMP_pressure;BME280_temperature;BME280_humidity;BME280_pressure;Samples;Min_cycle;Max_cycle;Signal;HPM_P1;HPM_P2
2022/11/08 00:01:43;;;;;;;20.50;4.90;;;;;;;19.54;59.94;100193.56;5090887;28;20162;-64
2022/11/08 00:04:13;;;;;;;13.17;4.63;;;;;;;19.51;59.61;100198.03;5073064;28;21164;-64
2022/11/08 00:14:51;;;;;;;16.73;4.87;;;;;;;19.45;60.34;100182.41;5092250;28;20450;-63
2022/11/08 00:17:17;;;;;;;17.57;5.27;;;;;;;19.46;60.03;100181.19;5092398;28;20416;-65
2022/11/08 00:19:43;;;;;;;15.70;5.00;;;;;;;19.48;60.22;100177.94;5092109;28;20179;-64
2022/11/08 00:22:09;;;;;;;14.93;4.70;;;;;;;19.44;60.31;100169.31;5092229;28;20423;-64
2022/11/08 00:24:35;;;;;;;13.53;4.40;;;;;;;19.45;60.28;100172.97;5091997;28;20233;-64
2022/11/08 00:27:03;;;;;;;12.57;4.43;;;;;;;19.45;60.41;100170.97;5092136;28;20412;-64
2022/11/08 00:29:28;;;;;;;10.73;4.20;;;;;;;19.43;60.47;100172.56;5072269;28;20183;-65
2022/11/08 00:31:54;;;;;;;16.13;4.70;;;;;;;19.46;60.25;100155.41;5091397;28;20417;-65
2022/11/08 00:34:19;;;;;;;12.40;4.40;;;;;;;19.46;60.52;100161.16;5090666;28;20170;-64
2022/11/08 00:36:45;;;;;;;16.77;4.50;;;;;;;19.45;60.63;100159.50;5089042;28;20174;-64
2022/11/08 00:39:10;;;;;;;10.67;3.90;;;;;;;19.45;60.74;100168.09;5090961;28;20228;-64
2022/11/08 00:41:36;;;;;;;12.30;4.57;;;;;;;19.45;60.30;100165.22;5088953;28;20182;-64
2022/11/08 00:44:01;;;;;;;12.00;4.60;;;;;;;19.44;60.73;100162.75;5101184;28;20210;-64
2022/11/08 00:46:26;;;;;;;12.03;4.10;;;;;;;19.42;60.91;100160.28;5073799;28;20171;-64
2022/11/08 00:48:52;;;;;;;14.40;4.87;;;;;;;19.44;60.86;100157.88;5091886;28;20155;-64
2022/11/08 00:51:17;;;;;;;11.93;5.10;;;;;;;19.43;61.10;100158.25;5073530;28;20592;-64
2022/11/08 00:53:43;;;;;;;10.60;3.77;;;;;;;19.43;60.83;100150.50;5103946;28;20196;-64
2022/11/08 00:56:10;;;;;;;14.37;4.10;;;;;;;19.42;61.06;100143.09;5112083;28;20170;-64
2022/11/08 00:58:35;;;;;;;15.13;4.97;;;;;;;19.43;61.10;100149.66;5093760;28;20170;-64
2022/11/08 01:01:07;;;;;;;10.60;4.17;;;;;;;19.43;61.26;100149.66;5111925;28;20411;-64
2022/11/08 01:03:33;;;;;;;12.73;4.30;;;;;;;19.41;61.21;100144.31;5097411;28;20207;-65
2022/11/08 01:06:00;;;;;;;13.20;4.40;;;;;;;19.40;61.33;100138.97;5071357;28;20417;-64
2022/11/08 01:08:26;;;;;;;11.00;4.00;;;;;;;19.42;61.45;100140.22;5053492;28;20553;-64
2022/11/08 01:10:51;;;;;;;20.70;4.20;;;;;;;19.43;61.49;100133.31;5071475;28;20409;-63
2022/11/08 01:13:17;;;;;;;12.60;3.40;;;;;;;19.38;61.27;100125.06;5075915;28;20186;-64
2022/11/08 01:15:43;;;;;;;10.00;4.47;;;;;;;19.43;61.21;100133.31;5107424;28;20617;-64
2022/11/08 01:18:09;;;;;;;15.43;5.23;;;;;;;19.42;61.39;100128.78;5076403;28;20181;-64
2022/11/08 01:20:41;;;;;;;8.87;3.47;;;;;;;19.43;61.50;100127.59;5111511;28;20418;-64
2022/11/08 01:23:06;;;;;;;9.83;3.60;;;;;;;19.40;61.44;100121.81;5110699;28;20177;-65
2022/11/08 01:25:36;;;;;;;9.63;3.73;;;;;;;19.41;61.47;100129.19;5093344;28;20794;-64
2022/11/08 01:28:01;;;;;;;11.53;4.00;;;;;;;19.41;61.39;100123.47;5093672;28;20165;-64
2022/11/08 01:30:26;;;;;;;9.10;3.70;;;;;;;19.39;61.50;100121.00;5111522;28;20870;-64
2022/11/08 01:32:52;;;;;;;11.77;4.00;;;;;;;19.42;61.59;100120.19;5111478;28;20479;-64
2022/11/08 01:35:17;;;;;;;8.73;4.30;;;;;;;19.41;61.59;100124.28;5111366;28;20188;-64
2022/11/08 01:37:43;;;;;;;14.53;4.63;;;;;;;19.41;61.53;100115.69;5111407;28;20166;-64
2022/11/08 01:40:09;;;;;;;8.03;3.30;;;;;;;19.40;61.71;100116.91;5111215;28;20624;-65
2022/11/08 01:42:34;;;;;;;8.80;3.93;;;;;;;19.38;61.63;100098.47;5104153;28;20186;-64
2022/11/08 01:45:04;;;;;;;8.47;3.13;;;;;;;19.38;61.72;100102.19;5091298;28;20463;-64
2022/11/08 01:47:30;;;;;;;9.00;3.57;;;;;;;19.38;61.77;100107.06;5071865;28;20193;-65
2022/11/08 01:50:07;;;;;;;7.50;3.20;;;;;;;19.36;62.04;100103.78;5079067;28;20469;-65
2022/11/08 01:52:35;;;;;;;11.30;3.20;;;;;;;19.38;61.61;100101.34;5090159;28;20193;-64
2022/11/08 01:55:03;;;;;;;8.70;3.37;;;;;;;19.38;61.83;100102.19;5054776;28;20436;-64
2022/11/08 01:57:31;;;;;;;10.10;4.10;;;;;;;19.38;61.88;100089.88;5090546;28;20404;-64
2022/11/08 01:59:57;;;;;;;11.50;3.60;;;;;;;19.39;61.73;100094.41;5090765;28;20904;-64
2022/11/08 02:02:23;;;;;;;10.23;3.53;;;;;;;19.39;61.78;100102.97;5045326;28;20528;-64
2022/11/08 02:04:48;;;;;;;13.20;3.57;;;;;;;19.39;61.88;100091.53;5088087;28;20463;-64
2022/11/08 02:07:14;;;;;;;7.50;3.50;;;;;;;19.34;62.03;100086.16;5090927;28;20174;-64
2022/11/08 02:09:41;;;;;;;10.93;3.83;;;;;;;19.38;61.81;100078.44;5069022;28;20202;-64
2022/11/08 02:12:06;;;;;;;11.13;3.50;;;;;;;19.37;61.86;100079.66;5070599;28;20519;-64
2022/11/08 02:14:32;;;;;;;8.73;3.20;;;;;;;19.38;62.01;100075.56;5085266;28;20474;-64
2022/11/08 02:16:57;;;;;;;12.20;3.93;;;;;;;19.35;62.11;100074.31;5090808;28;20182;-64
2022/11/08 02:19:44;;;;;;;8.77;3.80;;;;;;;19.33;62.14;100082.50;5090557;28;20166;-64
2022/11/08 02:22:21;;;;;;;11.17;3.90;;;;;;;19.34;62.06;100069.81;5058065;28;20208;-64
2022/11/08 02:24:47;;;;;;;11.43;3.40;;;;;;;19.36;62.08;100078.03;5072633;28;20452;-64
2022/11/08 02:27:13;;;;;;;7.77;3.47;;;;;;;19.37;62.00;100079.66;5090575;28;20424;-63
2022/11/08 02:29:38;;;;;;;9.50;3.90;;;;;;;19.35;62.11;100085.78;5056168;28;20254;-64
2022/11/08 02:32:04;;;;;;;12.20;3.90;;;;;;;19.35;62.15;100085.78;5090554;28;20159;-65
2022/11/08 02:34:35;;;;;;;8.50;3.40;;;;;;;19.33;62.13;100085.34;5074264;28;20185;-64
2022/11/08 02:37:01;;;;;;;9.20;3.60;;;;;;;19.34;62.17;100075.53;5059597;28;20428;-63
2022/11/08 02:39:27;;;;;;;11.57;3.33;;;;;;;19.35;62.09;100077.19;5075703;28;20412;-64
2022/11/08 02:41:53;;;;;;;9.13;3.23;;;;;;;19.35;62.31;100091.50;5094366;28;20585;-63
2022/11/08 02:44:18;;;;;;;7.97;3.60;;;;;;;19.35;62.20;100087.78;5094103;28;20463;-64
2022/11/08 02:46:44;;;;;;;6.77;2.90;;;;;;;19.34;62.34;100078.41;5088006;28;20187;-64
2022/11/08 02:49:09;;;;;;;6.57;2.83;;;;;;;19.34;62.16;100071.84;5090454;28;20170;-64
2022/11/08 02:51:35;;;;;;;7.47;2.90;;;;;;;19.32;62.20;100080.81;5055899;28;20218;-64
2022/11/08 02:54:00;;;;;;;7.03;2.90;;;;;;;19.32;62.18;100069.38;5073871;28;20182;-63
2022/11/08 02:56:26;;;;;;;7.03;2.70;;;;;;;19.32;62.24;100072.22;5073627;28;20593;-64
2022/11/08 02:58:51;;;;;;;10.90;4.20;;;;;;;19.32;62.43;100069.38;5073647;28;20159;-64
2022/11/08 03:01:16;;;;;;;6.50;3.27;;;;;;;19.35;62.01;100070.63;5038941;28;20168;-64
2022/11/08 03:03:42;;;;;;;8.50;3.30;;;;;;;19.33;62.29;100067.34;5064251;28;20265;-64
2022/11/08 03:06:07;;;;;;;6.60;3.40;;;;;;;19.33;62.30;100059.59;5034282;28;20183;-64
2022/11/08 03:08:33;;;;;;;8.30;3.03;;;;;;;19.30;62.60;100065.25;5052564;28;20188;-65
2022/11/08 03:10:59;;;;;;;8.00;3.33;;;;;;;19.32;62.50;100066.50;5071231;28;20167;-63
2022/11/08 03:13:24;;;;;;;6.10;3.00;;;;;;;19.34;62.31;100071.84;5071233;28;20198;-64
2022/11/08 03:15:50;;;;;;;7.53;3.43;;;;;;;19.35;62.20;100070.63;5053065;28;20755;-65
2022/11/08 03:18:15;;;;;;;7.50;3.27;;;;;;;19.33;62.27;100065.31;5071636;28;20198;-64
2022/11/08 03:20:41;;;;;;;7.47;3.23;;;;;;;19.31;62.45;100066.91;5071967;28;20480;-63
2022/11/08 03:23:06;;;;;;;7.73;3.33;;;;;;;19.30;62.43;100070.97;5072521;28;20601;-63
2022/11/08 03:25:32;;;;;;;7.47;3.10;;;;;;;19.31;62.43;100067.72;5038366;28;20668;-63
2022/11/08 03:28:06;;;;;;;5.33;2.93;;;;;;;19.29;62.45;100060.75;5072831;28;20175;-64
2022/11/08 03:30:32;;;;;;;8.47;3.77;;;;;;;19.30;62.25;100062.38;5072977;28;20192;-63
2022/11/08 03:32:57;;;;;;;7.33;2.80;;;;;;;19.31;62.43;100055.47;5055241;28;20410;-64
2022/11/08 03:35:23;;;;;;;8.40;3.00;;;;;;;19.29;62.39;100058.72;5072997;28;20892;-64
2022/11/08 03:37:52;;;;;;;6.33;3.00;;;;;;;19.27;62.58;100064.00;5055151;28;20190;-64
2022/11/08 03:40:18;;;;;;;7.83;3.27;;;;;;;19.29;62.46;100053.00;5054160;28;20182;-64
2022/11/08 03:42:43;;;;;;;4.77;2.33;;;;;;;19.29;62.54;100058.72;5072723;28;20413;-64
2022/11/08 03:45:10;;;;;;;7.40;3.20;;;;;;;19.29;62.66;100050.13;5053685;28;20213;-63
2022/11/08 03:47:39;;;;;;;7.07;2.50;;;;;;;19.33;62.41;100055.88;5054827;28;20190;-63
2022/11/08 03:50:05;;;;;;;7.00;3.43;;;;;;;19.29;62.49;100046.44;5065214;28;20826;-63
2022/11/08 03:52:31;;;;;;;6.67;2.53;;;;;;;19.27;62.45;100055.41;5034855;28;20423;-64
2022/11/08 03:54:56;;;;;;;7.43;3.13;;;;;;;19.27;62.48;100046.00;5034592;28;20434;-64
2022/11/08 03:57:22;;;;;;;6.90;3.40;;;;;;;19.28;62.47;100051.34;5052436;28;20168;-63
2022/11/08 03:59:47;;;;;;;7.50;3.47;;;;;;;19.28;62.47;100045.63;5052499;28;20180;-65
2022/11/08 04:02:12;;;;;;;8.60;2.93;;;;;;;19.26;62.69;100035.78;5052211;28;20179;-64
2022/11/08 04:04:38;;;;;;;7.43;3.20;;;;;;;19.27;62.55;100032.50;5034175;28;20667;-64
2022/11/08 04:07:03;;;;;;;5.20;2.50;;;;;;;19.28;62.53;100027.63;5052235;28;20570;-64
2022/11/08 04:09:29;;;;;;;6.73;3.27;;;;;;;19.26;62.67;100030.06;5052202;28;20404;-64
2022/11/08 04:21:17;;;;;;;6.10;2.57;;;;;;;19.26;62.62;100030.88;5071688;28;20820;-64
2022/11/08 04:22:52;;;;;;;7.50;3.00;;;;;;;19.28;62.58;100027.63;5071116;28;20425;-64
2022/11/08 04:25:17;;;;;;;6.10;3.00;;;;;;;19.27;62.64;100021.06;5071137;28;21155;-64
2022/11/08 04:27:43;;;;;;;6.83;2.90;;;;;;;19.28;62.69;100016.16;5070988;28;20196;-64
2022/11/08 04:30:09;;;;;;;6.93;3.13;;;;;;;19.27;62.48;100018.19;5071210;28;20167;-64
2022/11/08 04:32:34;;;;;;;6.83;2.90;;;;;;;19.25;62.33;100020.66;5069375;28;20194;-64
2022/11/08 04:34:59;;;;;;;4.63;2.13;;;;;;;19.30;62.47;100020.28;5054209;28;20421;-63
2022/11/08 04:37:25;;;;;;;6.30;2.67;;;;;;;19.27;62.45;100018.19;5050827;28;20156;-64
2022/11/08 04:39:50;;;;;;;9.70;2.97;;;;;;;19.28;62.38;100016.16;5032998;28;20524;-64
2022/11/08 04:42:16;;;;;;;7.57;2.80;;;;;;;19.26;62.54;100021.47;5056039;28;20646;-64
2022/11/08 04:44:41;;;;;;;9.03;3.40;;;;;;;19.26;62.57;100019.41;5070239;28;20226;-63
2022/11/08 04:47:07;;;;;;;5.03;2.30;;;;;;;19.26;62.57;100019.41;5065009;28;20179;-63
2022/11/08 04:49:32;;;;;;;5.13;2.20;;;;;;;19.27;62.51;100020.25;5070607;28;20223;-64
2022/11/08 04:51:58;;;;;;;6.27;2.70;;;;;;;19.29;62.53;100034.97;5051378;28;20586;-64
2022/11/08 04:54:23;;;;;;;6.70;2.57;;;;;;;19.27;62.67;100026.78;5051170;28;20639;-64
2022/11/08 04:56:48;;;;;;;6.13;2.77;;;;;;;19.28;62.56;100027.63;5051337;28;20163;-63
2022/11/08 04:59:14;;;;;;;6.50;2.97;;;;;;;19.27;62.57;100012.47;5051847;28;20172;-64
2022/11/08 05:01:39;;;;;;;4.47;2.10;;;;;;;19.29;62.52;100009.22;5070852;28;20194;-64
2022/11/08 05:04:05;;;;;;;5.30;2.47;;;;;;;19.27;62.53;100009.59;5071121;28;20210;-63
2022/11/08 05:06:31;;;;;;;4.40;2.63;;;;;;;19.29;62.49;99994.91;5071428;28;20178;-64
2022/11/08 05:08:57;;;;;;;7.93;2.70;;;;;;;19.26;62.61;99999.38;5053430;28;20207;-64
2022/11/08 05:11:23;;;;;;;6.80;2.80;;;;;;;19.28;62.56;99993.28;5071189;28;20828;-64
2022/11/08 05:13:49;;;;;;;5.93;2.43;;;;;;;19.27;62.59;99991.63;5053256;28;20428;-63
2022/11/08 05:16:19;;;;;;;6.00;2.90;;;;;;;19.28;62.65;99988.38;5052953;28;20434;-64
2022/11/08 05:18:44;;;;;;;4.70;2.60;;;;;;;19.26;62.57;99981.41;5036751;28;20164;-63
2022/11/08 05:23:55;;;;;;;6.70;2.60;;;;;;;19.26;62.79;99975.69;5056118;28;20286;-64
2022/11/08 05:26:21;;;;;;;4.90;2.50;;;;;;;19.27;62.58;99980.19;5071173;28;20405;-64
2022/11/08 05:28:46;;;;;;;4.40;2.50;;;;;;;19.28;62.35;99965.50;5052896;28;20681;-63
2022/11/08 05:31:12;;;;;;;6.63;2.30;;;;;;;19.27;62.65;99972.41;5070684;28;20269;-64
2022/11/08 05:33:37;;;;;;;5.00;2.47;;;;;;;19.27;62.57;99975.25;5071104;28;20160;-64
2022/11/08 05:36:06;;;;;;;5.83;2.50;;;;;;;19.29;62.48;99977.75;5071006;28;20179;-64
2022/11/08 05:38:32;;;;;;;9.87;2.63;;;;;;;19.27;62.76;99981.00;5070876;28;20316;-64
2022/11/08 05:41:19;;;;;;;3.87;1.90;;;;;;;19.29;62.61;99972.84;5070603;28;20409;-64
2022/11/08 05:43:45;;;;;;;5.83;2.60;;;;;;;19.28;62.60;99965.50;5070680;28;20206;-64
2022/11/08 05:46:11;;;;;;;5.33;2.70;;;;;;;19.30;62.77;99965.91;5052763;28;20413;-63
2022/11/08 05:48:36;;;;;;;5.90;2.40;;;;;;;19.31;62.56;99961.81;5070209;28;20790;-64
2022/11/08 05:51:02;;;;;;;5.07;2.40;;;;;;;19.32;62.45;99965.50;5067616;28;20231;-63
2022/11/08 05:53:27;;;;;;;7.83;2.90;;;;;;;19.30;62.54;99950.75;5036119;28;20178;-64
2022/11/08 05:56:00;;;;;;;6.03;2.53;;;;;;;19.27;62.59;99949.50;5070326;28;20178;-64
2022/11/08 05:58:26;;;;;;;4.23;2.13;;;;;;;19.28;62.54;99948.31;5052302;28;20258;-64
2022/11/08 06:01:00;;;;;;;5.07;2.33;;;;;;;19.28;62.71;99948.31;5070125;28;20504;-64
2022/11/08 06:03:25;;;;;;;5.13;2.23;;;;;;;19.29;62.58;99957.69;5069912;28;20683;-64
2022/11/08 06:05:51;;;;;;;6.50;2.53;;;;;;;19.32;62.53;99956.94;5070075;28;20417;-64
2022/11/08 06:08:16;;;;;;;3.73;1.80;;;;;;;19.28;62.55;99959.75;5070250;28;20160;-63
2022/11/08 06:10:42;;;;;;;4.27;2.60;;;;;;;19.27;62.64;99958.09;5074200;28;20179;-63
2022/11/08 06:13:07;;;;;;;5.07;2.20;;;;;;;19.30;62.48;99965.06;5058842;28;20190;-65
2022/11/08 06:15:33;;;;;;;3.77;2.10;;;;;;;19.28;62.56;99970.38;5094165;28;20581;-64
2022/11/08 06:18:02;;;;;;;4.67;2.40;;;;;;;19.28;62.68;99961.78;5093827;28;20205;-63
2022/11/08 06:20:28;;;;;;;5.47;2.60;;;;;;;19.28;62.63;99964.66;5093930;28;20530;-64
2022/11/08 06:22:54;;;;;;;5.13;2.40;;;;;;;19.28;62.53;99967.50;5091264;28;20401;-64
2022/11/08 06:25:19;;;;;;;4.43;1.90;;;;;;;19.30;62.60;99962.22;5072807;28;20193;-63
2022/11/08 06:27:45;;;;;;;4.80;2.40;;;;;;;19.29;62.64;99961.41;5073522;28;20404;-65
2022/11/08 06:30:11;;;;;;;4.63;2.30;;;;;;;19.30;62.61;99962.22;5092306;28;20590;-63
2022/11/08 06:32:36;;;;;;;3.90;2.10;;;;;;;19.32;62.37;99972.03;5091239;28;20598;-64
2022/11/08 06:35:02;;;;;;;6.10;1.90;;;;;;;19.31;62.64;99970.41;5107618;28;20415;-64
2022/11/08 06:37:27;;;;;;;5.80;2.40;;;;;;;19.31;62.47;99970.41;5088606;28;20253;-63
2022/11/08 06:39:53;;;;;;;4.33;2.10;;;;;;;19.30;62.64;99967.94;5076504;28;20167;-64
2022/11/08 06:42:18;;;;;;;5.63;2.47;;;;;;;19.29;62.61;99966.28;5075318;28;21107;-64
2022/11/08 06:44:44;;;;;;;6.17;2.50;;;;;;;19.31;62.58;99958.16;5093992;28;20670;-63
2022/11/08 06:47:09;;;;;;;4.40;2.13;;;;;;;19.27;62.61;99963.00;5093839;28;20584;-63
2022/11/08 06:49:36;;;;;;;3.90;1.93;;;;;;;19.33;62.69;99956.53;5072476;28;20712;-63
2022/11/08 06:52:01;;;;;;;5.27;2.40;;;;;;;19.30;62.58;99968.75;5093324;28;20521;-64
2022/11/08 06:54:26;;;;;;;5.20;2.70;;;;;;;19.34;62.61;99969.63;5077333;28;20421;-63
2022/11/08 06:56:54;;;;;;;5.87;2.50;;;;;;;19.31;62.54;99961.00;5086287;28;20190;-64
2022/11/08 06:59:20;;;;;;;4.90;2.33;;;;;;;19.32;62.71;99966.31;5074530;28;20224;-63
2022/11/08 07:01:46;;;;;;;6.30;2.60;;;;;;;19.31;62.61;99958.97;5081351;28;20458;-63
2022/11/08 07:04:11;;;;;;;6.00;2.20;;;;;;;19.29;62.52;99957.69;5075649;28;20461;-63
2022/11/08 07:06:36;;;;;;;3.93;2.10;;;;;;;19.30;62.68;99957.31;5079488;28;20547;-64
2022/11/08 07:09:02;;;;;;;4.60;2.20;;;;;;;19.30;62.70;99959.34;5077349;28;20187;-63
2022/11/08 07:11:27;;;;;;;4.10;2.17;;;;;;;19.32;62.35;99949.16;5076784;28;20182;-63
2022/11/08 07:13:53;;;;;;;5.37;2.30;;;;;;;19.34;62.55;99969.63;5077659;28;20186;-64
2022/11/08 07:16:18;;;;;;;4.17;1.90;;;;;;;19.32;62.54;99966.31;5076630;28;20179;-64
2022/11/08 07:18:44;;;;;;;6.80;2.43;;;;;;;19.37;62.40;99973.75;5076180;28;20185;-64
2022/11/08 07:21:09;;;;;;;4.70;2.10;;;;;;;19.35;62.58;99982.72;5078171;28;20183;-64
2022/11/08 07:23:35;;;;;;;4.40;2.13;;;;;;;19.34;62.73;99983.09;5085117;28;20201;-64
2022/11/08 07:26:04;;;;;;;6.40;2.00;;;;;;;19.34;62.57;99985.97;5093451;28;20170;-63
2022/11/08 07:28:29;;;;;;;5.57;2.53;;;;;;;19.34;62.49;99980.25;5074211;28;20205;-63
2022/11/08 07:31:01;;;;;;;4.50;2.10;;;;;;;19.31;62.81;99993.31;5093193;28;20421;-64
2022/11/08 07:33:27;;;;;;;4.70;2.20;;;;;;;19.30;62.57;99990.81;5082066;28;20170;-64
2022/11/08 07:35:53;;;;;;;4.10;2.07;;;;;;;19.33;62.68;99990.88;5082682;28;20816;-63
2022/11/08 07:38:20;;;;;;;3.80;2.07;;;;;;;19.35;62.59;99993.34;5058595;28;20193;-64
2022/11/08 07:40:46;;;;;;;3.37;1.83;;;;;;;19.33;62.61;99990.88;5088760;28;20458;-63
2022/11/08 07:43:11;;;;;;;3.00;1.70;;;;;;;19.32;62.87;99994.94;5088344;28;20417;-63
2022/11/08 07:45:37;;;;;;;6.40;2.50;;;;;;;19.35;62.49;99999.06;5070682;28;20592;-65
2022/11/08 07:48:04;;;;;;;3.33;1.73;;;;;;;19.34;62.61;99995.38;5074721;28;20187;-64
2022/11/08 07:50:30;;;;;;;4.30;2.13;;;;;;;19.35;62.69;99981.88;5073968;28;20258;-64
2022/11/08 07:52:55;;;;;;;3.63;1.63;;;;;;;19.33;62.92;99996.63;5073628;28;20500;-64
2022/11/08 07:55:21;;;;;;;3.43;1.70;;;;;;;19.34;62.59;100003.97;5072790;28;20183;-64
2022/11/08 07:57:46;;;;;;;3.37;1.97;;;;;;;19.36;62.55;100003.59;5076854;28;20179;-64
2022/11/08 08:00:13;;;;;;;3.73;1.90;;;;;;;19.34;62.59;100006.84;5089827;28;20187;-64
2022/11/08 08:02:38;;;;;;;3.83;2.03;;;;;;;19.37;62.58;100020.34;5085745;28;20181;-64
2022/11/08 08:05:04;;;;;;;3.83;1.80;;;;;;;19.34;63.07;100008.88;5073836;28;20517;-64
2022/11/08 08:07:29;;;;;;;4.07;2.20;;;;;;;19.32;62.63;100003.53;5065016;28;20191;-64
2022/11/08 08:09:55;;;;;;;6.00;2.07;;;;;;;19.36;62.55;100012.97;5075707;28;20179;-63
2022/11/08 08:12:20;;;;;;;5.70;2.03;;;;;;;19.36;62.53;100010.13;5059540;28;20554;-64
2022/11/08 08:14:45;;;;;;;4.73;1.90;;;;;;;19.34;62.61;100009.69;5072532;28;20837;-64
2022/11/08 08:17:11;;;;;;;4.10;2.10;;;;;;;19.34;62.70;100011.72;5074046;28;20629;-64
2022/11/08 08:19:36;;;;;;;9.60;4.70;;;;;;;19.09;59.36;100002.88;5070600;28;20186;-63
2022/11/08 08:22:02;;;;;;;10.80;5.43;;;;;;;18.96;60.58;100007.19;5055972;28;20194;-65
2022/11/08 08:24:27;;;;;;;15.00;7.97;;;;;;;19.02;59.92;100011.34;5053475;28;20218;-65
2022/11/08 08:26:53;;;;;;;14.40;8.70;;;;;;;19.33;58.48;100007.22;5074395;28;20217;-65
2022/11/08 08:29:18;;;;;;;13.13;8.97;;;;;;;19.50;57.77;100007.41;5056107;28;20182;-64
2022/11/08 08:31:43;;;;;;;13.30;7.10;;;;;;;19.44;55.40;100017.56;5073264;28;20179;-66
2022/11/08 08:34:09;;;;;;;13.23;6.73;;;;;;;19.46;54.33;100020.06;5071631;28;20324;-65
2022/11/08 08:36:34;;;;;;;12.50;6.13;;;;;;;19.56;55.35;100023.00;5069876;28;20186;-65
2022/11/08 08:39:00;;;;;;;17.87;6.83;;;;;;;19.56;55.69;100025.88;5073092;28;20187;-65
2022/11/08 08:41:26;;;;;;;10.27;6.10;;;;;;;19.63;56.09;100037.41;5074219;28;20521;-65
2022/11/08 08:43:51;;;;;;;12.43;6.53;;;;;;;19.68;55.71;100031.31;5071819;28;20203;-64
2022/11/08 08:46:16;;;;;;;10.23;5.30;;;;;;;19.72;56.75;100031.34;5073312;28;20182;-65
2022/11/08 08:48:42;;;;;;;9.57;5.43;;;;;;;19.74;56.88;100026.03;5054074;28;20265;-65
2022/11/08 08:51:07;;;;;;;9.33;6.20;;;;;;;19.67;57.38;100029.66;5072416;28;20688;-64
2022/11/08 08:53:33;;;;;;;10.80;5.90;;;;;;;19.72;57.57;100032.16;5039687;28;20190;-65
2022/11/08 08:56:01;;;;;;;9.17;5.37;;;;;;;19.75;56.81;100033.41;5055309;28;20187;-64
2022/11/08 08:58:26;;;;;;;8.00;5.10;;;;;;;20.02;57.22;100029.94;5071183;28;20239;-64
2022/11/08 09:00:51;;;;;;;9.30;6.00;;;;;;;20.20;57.05;100041.56;5071804;28;20433;-64
2022/11/08 09:03:17;;;;;;;8.97;5.13;;;;;;;20.21;56.67;100038.31;5072876;28;20270;-64
2022/11/08 09:05:45;;;;;;;8.97;5.50;;;;;;;20.11;57.99;100044.00;5052368;28;20210;-63
2022/11/08 09:08:11;;;;;;;12.70;5.87;;;;;;;19.99;59.28;100047.94;5071385;28;20279;-64
2022/11/08 09:10:36;;;;;;;9.80;5.47;;;;;;;19.93;59.52;100043.81;5053965;28;20812;-63
2022/11/08 09:13:02;;;;;;;12.10;5.13;;;;;;;19.92;59.36;100050.75;5070890;28;20424;-62
2022/11/08 09:15:28;;;;;;;8.80;4.87;;;;;;;19.86;59.00;100032.28;5037980;28;20210;-64
2022/11/08 09:17:54;;;;;;;10.37;5.20;;;;;;;19.92;59.20;100036.41;5072479;28;20213;-65
2022/11/08 09:20:19;;;;;;;8.93;5.83;;;;;;;19.89;59.32;100034.34;5072930;28;20637;-65
2022/11/08 09:22:44;;;;;;;11.07;4.97;;;;;;;19.84;58.96;100023.25;5069993;28;20190;-63
2022/11/08 09:25:10;;;;;;;8.23;4.73;;;;;;;19.80;59.13;100033.88;5071537;28;20202;-64
2022/11/08 09:27:35;;;;;;;9.27;5.40;;;;;;;19.71;58.84;100030.50;5073211;28;20198;-64
2022/11/08 09:30:01;;;;;;;10.03;4.97;;;;;;;19.65;58.42;100032.09;5070422;28;20186;-63
2022/11/08 09:32:29;;;;;;;9.77;5.30;;;;;;;19.67;58.24;100029.66;5070131;28;20186;-63
2022/11/08 09:34:55;;;;;;;14.43;6.10;;;;;;;19.58;58.58;100019.75;5069192;28;20800;-64
2022/11/08 09:37:21;;;;;;;18.83;5.50;;;;;;;19.54;58.10;100027.47;5054792;28;20421;-65
2022/11/08 09:39:47;;;;;;;14.20;6.53;;;;;;;19.47;57.24;100028.22;5047228;28;20212;-64
2022/11/08 09:42:50;;;;;;;17.40;9.33;;;;;;;19.41;57.35;100023.28;5071531;28;20478;-63
2022/11/08 09:45:29;;;;;;;14.63;7.53;;;;;;;19.37;56.09;100026.06;5071774;28;20210;-64
2022/11/08 09:47:59;;;;;;;16.50;6.90;;;;;;;19.34;55.73;100012.56;5074871;28;20437;-64
2022/11/08 09:50:37;;;;;;;15.07;6.77;;;;;;;19.35;55.83;100017.06;5057754;28;20502;-63
2022/11/08 09:53:12;;;;;;;13.93;6.33;;;;;;;19.39;55.79;100019.97;5049834;28;20435;-64
2022/11/08 09:55:48;;;;;;;11.47;5.40;;;;;;;19.46;55.72;100017.19;5076566;28;20521;-64
2022/11/08 09:58:14;;;;;;;10.43;5.50;;;;;;;19.48;56.05;100026.19;5078464;28;20429;-62
2022/11/08 10:00:39;;;;;;;9.60;5.93;;;;;;;19.48;56.31;100018.44;5080505;28;20476;-62
2022/11/08 10:03:07;;;;;;;9.17;4.93;;;;;;;19.48;56.49;100017.59;5075951;28;20187;-62
2022/11/08 10:05:39;;;;;;;9.07;5.23;;;;;;;19.44;56.39;100019.59;5060520;28;20211;-61
2022/11/08 10:08:33;;;;;;;10.47;4.37;;;;;;;19.41;56.62;100015.50;5062286;28;20456;-62
2022/11/08 10:11:17;;;;;;;11.60;4.50;;;;;;;19.42;56.81;100011.41;5038450;28;20432;-62
2022/11/08 10:13:55;;;;;;;15.53;5.30;;;;;;;19.43;57.36;100004.50;5076278;28;20420;-61
2022/11/08 10:16:43;;;;;;;17.40;5.43;;;;;;;19.42;58.63;100011.41;5074306;28;20433;-64
2022/11/08 10:19:20;;;;;;;14.27;5.00;;;;;;;19.46;60.60;100005.75;5075930;28;20427;-64
2022/11/08 10:21:48;;;;;;;16.47;5.40;;;;;;;19.51;61.01;100008.25;5076785;28;21119;-63
2022/11/08 10:24:25;;;;;;;22.80;5.20;;;;;;;19.50;61.11;100000.84;5076579;28;21022;-63
2022/11/08 10:26:51;;;;;;;11.23;4.80;;;;;;;19.56;60.91;100008.69;5079587;28;20466;-61
2022/11/08 10:29:36;;;;;;;10.30;5.47;;;;;;;19.50;61.08;100007.41;5076498;28;20465;-63
2022/11/08 10:32:19;;;;;;;10.23;5.10;;;;;;;19.49;59.84;100005.75;5074993;28;20661;-63
2022/11/08 10:35:25;;;;;;;9.00;4.60;;;;;;;19.48;59.55;99997.56;5059319;28;20432;-62
2022/11/08 10:37:50;;;;;;;9.33;4.00;;;;;;;19.49;59.53;100002.06;5045208;28;20476;-61
2022/11/08 10:40:19;;;;;;;11.63;5.10;;;;;;;19.55;59.31;100000.47;5076619;28;20419;-61
2022/11/08 10:43:11;;;;;;;13.93;4.77;;;;;;;19.55;59.75;99997.63;5073456;28;20191;-62
2022/11/08 10:45:37;;;;;;;9.80;4.43;;;;;;;19.57;59.51;99990.28;5060029;28;20460;-61
2022/11/08 10:48:03;;;;;;;10.17;4.47;;;;;;;19.58;59.66;99994.81;5075501;28;20424;-62
2022/11/08 10:50:48;;;;;;;8.00;4.53;;;;;;;19.64;59.52;99993.22;5057625;28;20317;-61
2022/11/08 10:53:24;;;;;;;10.27;4.73;;;;;;;19.59;59.69;99987.03;5078977;28;20428;-62
2022/11/08 10:55:51;;;;;;;12.10;4.70;;;;;;;19.65;59.90;99983.41;5046969;28;20429;-62
2022/11/08 10:58:31;;;;;;;16.80;4.87;;;;;;;19.68;59.85;99979.75;5076185;28;20897;-62
2022/11/08 11:01:16;;;;;;;7.47;4.27;;;;;;;19.64;59.81;99984.63;5055931;28;20512;-62
2022/11/08 11:03:42;;;;;;;10.17;4.40;;;;;;;19.65;60.27;99980.53;5075199;28;20531;-62
2022/11/08 11:06:29;;;;;;;9.63;3.93;;;;;;;19.65;59.78;99980.53;5073936;28;20463;-63
2022/11/08 11:08:59;;;;;;;14.03;4.03;;;;;;;19.64;59.99;99976.03;5073612;28;20437;-62
2022/11/08 11:11:33;;;;;;;17.17;4.27;;;;;;;19.66;60.07;99976.44;5073824;28;20440;-63
2022/11/08 11:14:20;;;;;;;11.43;4.03;;;;;;;19.69;60.08;99969.94;5061297;28;20449;-62
2022/11/08 11:16:57;;;;;;;11.03;4.10;;;;;;;19.67;60.10;99969.50;5055994;28;20432;-64
2022/11/08 11:19:24;;;;;;;8.20;3.20;;;;;;;19.69;60.12;99975.66;5077591;28;20429;-62
2022/11/08 11:22:00;;;;;;;6.23;3.37;;;;;;;19.72;60.11;99974.84;5049153;28;20459;-62
2022/11/08 11:24:26;;;;;;;6.30;3.40;;;;;;;19.70;60.15;99968.72;5075645;28;20547;-62
2022/11/08 11:27:17;;;;;;;8.17;3.83;;;;;;;19.74;60.22;99972.44;5058202;28;20425;-63
2022/11/08 11:29:42;;;;;;;9.77;3.53;;;;;;;19.71;60.42;99964.63;5045190;28;20182;-62
2022/11/08 11:32:25;;;;;;;6.47;3.23;;;;;;;19.67;60.44;99966.63;5073303;28;20493;-63
2022/11/08 11:35:16;;;;;;;5.90;2.90;;;;;;;19.67;60.66;99960.91;5057332;28;20170;-62
2022/11/08 11:37:43;;;;;;;11.00;3.90;;;;;;;19.69;60.63;99954.78;5073838;28;20468;-63
2022/11/08 11:40:33;;;;;;;8.43;3.50;;;;;;;19.66;60.78;99956.41;5059154;28;20432;-63
2022/11/08 11:43:05;;;;;;;6.10;3.13;;;;;;;19.66;60.76;99961.31;5055640;28;20424;-64
2022/11/08 11:45:46;;;;;;;8.03;4.20;;;;;;;19.68;60.82;99956.00;5049365;28;20457;-63
2022/11/08 11:48:41;;;;;;;10.20;3.43;;;;;;;19.68;60.88;99944.56;5071133;28;20428;-63